Chem Star — V7FI3 — position and weather

sailwx.info

Track history (hours):
 
Tides and Currents Weather Stations Pressure Air Temp Water Temp Dewpoint Dewpoint Depression Visibility Wind Speed Wind Dir Waves Ship Positions

Chem Star

Last reported at 2018-May-25 01:45 UTC. Time now 2018-Jun-22 22:59 UTC.
Position N 34°24' E 134°16'.
Warning: this ship's position is 28 days out of date.

Length 117 m; draft 6.2 m.

Type: Tanker. MMSI: 538001945.

Date/timePositionNaut miles runAvg speedWind from/ knotsBaromVisibWave heightAir tempDewpointWater temp
2018-May-25 01:45N 34°24' E 134°16'210.0
2018-May-25 01:30N 34°24' E 134°18'510.6
2018-May-25 01:00N 34°26' E 134°25'510.8
2018-May-25 00:30N 34°28' E 134°31'510.6
2018-May-25 00:00N 34°30' E 134°37'510.5
2018-May-24 23:30N 34°32' E 134°43'611.9
2018-May-24 23:00N 34°34' E 134°49'612.4
2018-May-24 22:30N 34°37' E 134°56'510.9
2018-May-24 22:00N 34°36' E 135°03'5 9.3
2018-May-24 21:30N 34°36' E 135°08'2 3.5
2018-May-24 20:56N 34°38' E 135°10'0 0.0
2018-May-24 20:13N 34°38' E 135°10'0 0.0
2018-May-24 19:56N 34°38' E 135°10'0 0.0
2018-May-24 19:25N 34°38' E 135°10'0 0.1
2018-May-24 18:58N 34°38' E 135°10'0 0.2
2018-May-24 18:26N 34°38' E 135°10'0 0.2
2018-May-24 17:59N 34°38' E 135°10'0 0.1
2018-May-24 17:28N 34°38' E 135°10'0 0.0
2018-May-24 16:55N 34°38' E 135°10'0 0.0
2018-May-24 16:28N 34°38' E 135°10'0 0.0
2018-May-24 15:55N 34°38' E 135°10'0 0.0
2018-May-24 15:25N 34°38' E 135°10'0 0.0
2018-May-24 14:56N 34°38' E 135°10'0 0.0
2018-May-24 14:28N 34°38' E 135°10'0 0.0
2018-May-24 13:55N 34°38' E 135°10'0 0.0
2018-May-24 13:19N 34°38' E 135°10'0 0.0
2018-May-24 08:55N 34°38' E 135°10'0 0.0
2018-May-24 08:25N 34°38' E 135°10'0 0.0
2018-May-24 07:43N 34°38' E 135°10'0 0.0
2018-May-24 07:25N 34°38' E 135°10'0 0.1
2018-May-24 06:55N 34°38' E 135°10'0 0.1
2018-May-24 06:25N 34°38' E 135°10'0 0.0
2018-May-24 05:49N 34°38' E 135°10'0 0.1
2018-May-24 05:22N 34°38' E 135°10'0 0.1
2018-May-24 04:58N 34°38' E 135°10'0 0.0
2018-May-24 04:22N 34°38' E 135°10'0 0.0
2018-May-24 03:55N 34°38' E 135°10'0 0.0
2018-May-24 03:28N 34°38' E 135°10'0 0.0
2018-May-24 02:55N 34°38' E 135°10'0 0.3
2018-May-24 02:30N 34°38' E 135°10'1 2.2
2018-May-24 02:00N 34°37' E 135°10'3 6.0
2018-May-24 01:30N 34°34' E 135°09'4 8.7
2018-May-24 01:00N 34°30' E 135°08'510.7
2018-May-24 00:30N 34°25' E 135°05'510.5
2018-May-23 23:59N 34°20' E 135°01'5 9.6
2018-May-23 23:30N 34°16' E 134°59'5 9.3
2018-May-23 23:00N 34°12' E 134°59'4 7.6
2018-May-23 22:30N 34°08' E 134°59'4 7.6
2018-May-23 22:00N 34°04' E 134°58'4 7.2
2018-May-23 21:30N 34°01' E 134°57'4 7.6
2018-May-23 21:00N 33°57' E 134°56'4 7.8
2018-May-23 20:30N 33°53' E 134°55'4 7.4
2018-May-23 19:58N 33°49' E 134°54'5 7.7
2018-May-23 19:17N 33°44' E 134°53'3 7.7
2018-May-23 18:57N 33°41' E 134°52'  
Track history (hours):
 
Tides and Currents Weather Stations Pressure Air Temp Water Temp Dewpoint Dewpoint Depression Visibility Wind Speed Wind Dir Waves Ship Positions

Chem Star

Last reported at 2018-May-25 01:45 UTC. Time now 2018-Jun-22 22:59 UTC.
Position N 34°24' E 134°16'.
Warning: this ship's position is 28 days out of date.

Length 117 m; draft 6.2 m.

Type: Tanker. MMSI: 538001945.

Date/timePositionNaut miles runAvg speedWind from/ knotsBaromVisibWave heightAir tempDewpointWater temp
2018-May-25 01:45N 34°24' E 134°16'210.0
2018-May-25 01:30N 34°24' E 134°18'510.6
2018-May-25 01:00N 34°26' E 134°25'510.8
2018-May-25 00:30N 34°28' E 134°31'510.6
2018-May-25 00:00N 34°30' E 134°37'510.5
2018-May-24 23:30N 34°32' E 134°43'611.9
2018-May-24 23:00N 34°34' E 134°49'612.4
2018-May-24 22:30N 34°37' E 134°56'510.9
2018-May-24 22:00N 34°36' E 135°03'5 9.3
2018-May-24 21:30N 34°36' E 135°08'2 3.5
2018-May-24 20:56N 34°38' E 135°10'0 0.0
2018-May-24 20:13N 34°38' E 135°10'0 0.0
2018-May-24 19:56N 34°38' E 135°10'0 0.0
2018-May-24 19:25N 34°38' E 135°10'0 0.1
2018-May-24 18:58N 34°38' E 135°10'0 0.2
2018-May-24 18:26N 34°38' E 135°10'0 0.2
2018-May-24 17:59N 34°38' E 135°10'0 0.1
2018-May-24 17:28N 34°38' E 135°10'0 0.0
2018-May-24 16:55N 34°38' E 135°10'0 0.0
2018-May-24 16:28N 34°38' E 135°10'0 0.0
2018-May-24 15:55N 34°38' E 135°10'0 0.0
2018-May-24 15:25N 34°38' E 135°10'0 0.0
2018-May-24 14:56N 34°38' E 135°10'0 0.0
2018-May-24 14:28N 34°38' E 135°10'0 0.0
2018-May-24 13:55N 34°38' E 135°10'0 0.0
2018-May-24 13:19N 34°38' E 135°10'0 0.0
2018-May-24 08:55N 34°38' E 135°10'0 0.0
2018-May-24 08:25N 34°38' E 135°10'0 0.0
2018-May-24 07:43N 34°38' E 135°10'0 0.0
2018-May-24 07:25N 34°38' E 135°10'0 0.1
2018-May-24 06:55N 34°38' E 135°10'0 0.1
2018-May-24 06:25N 34°38' E 135°10'0 0.0
2018-May-24 05:49N 34°38' E 135°10'0 0.1
2018-May-24 05:22N 34°38' E 135°10'0 0.1
2018-May-24 04:58N 34°38' E 135°10'0 0.0
2018-May-24 04:22N 34°38' E 135°10'0 0.0
2018-May-24 03:55N 34°38' E 135°10'0 0.0
2018-May-24 03:28N 34°38' E 135°10'0 0.0
2018-May-24 02:55N 34°38' E 135°10'0 0.3
2018-May-24 02:30N 34°38' E 135°10'1 2.2
2018-May-24 02:00N 34°37' E 135°10'3 6.0
2018-May-24 01:30N 34°34' E 135°09'4 8.7
2018-May-24 01:00N 34°30' E 135°08'510.7
2018-May-24 00:30N 34°25' E 135°05'510.5
2018-May-23 23:59N 34°20' E 135°01'5 9.6
2018-May-23 23:30N 34°16' E 134°59'5 9.3
2018-May-23 23:00N 34°12' E 134°59'4 7.6
2018-May-23 22:30N 34°08' E 134°59'4 7.6
2018-May-23 22:00N 34°04' E 134°58'4 7.2
2018-May-23 21:30N 34°01' E 134°57'4 7.6
2018-May-23 21:00N 33°57' E 134°56'4 7.8
2018-May-23 20:30N 33°53' E 134°55'4 7.4
2018-May-23 19:58N 33°49' E 134°54'5 7.7
2018-May-23 19:17N 33°44' E 134°53'3 7.7
2018-May-23 18:57N 33°41' E 134°52'  

Dump ship's entire track history